createdAt,value
2019-03-31T00:02:08.151Z,14.17
2019-03-31T00:04:42.522Z,13.40
2019-03-31T00:07:15.239Z,13.50
2019-03-31T00:09:48.403Z,13.60
2019-03-31T00:12:21.368Z,13.50
2019-03-31T00:14:54.335Z,13.50
2019-03-31T00:17:29.587Z,12.87
2019-03-31T00:20:03.764Z,12.97
2019-03-31T00:22:37.027Z,13.73
2019-03-31T00:25:11.932Z,13.23
2019-03-31T00:27:44.629Z,13.40
2019-03-31T00:30:20.148Z,13.43
2019-03-31T00:32:52.974Z,13.73
2019-03-31T00:35:28.156Z,13.40
2019-03-31T00:38:02.436Z,13.53
2019-03-31T00:40:35.736Z,13.53
2019-03-31T00:43:08.479Z,14.53
2019-03-31T00:45:41.158Z,13.57
2019-03-31T00:48:14.172Z,13.20
2019-03-31T00:50:47.701Z,13.03
2019-03-31T00:53:20.830Z,12.67
2019-03-31T00:55:54.577Z,12.87
2019-03-31T00:58:27.398Z,12.33
2019-03-31T01:01:19.600Z,13.20
2019-03-31T01:03:54.064Z,13.33
2019-03-31T01:06:28.530Z,12.83
2019-03-31T01:09:02.111Z,13.40
2019-03-31T01:11:38.033Z,13.40
2019-03-31T01:14:11.631Z,12.57
2019-03-31T01:16:46.179Z,13.10
2019-03-31T01:19:20.304Z,14.07
2019-03-31T01:21:55.399Z,14.17
2019-03-31T01:24:31.280Z,13.50
2019-03-31T01:27:06.827Z,13.03
2019-03-31T01:29:39.609Z,13.23
2019-03-31T01:32:14.108Z,14.07
2019-03-31T01:34:47.194Z,12.70
2019-03-31T01:37:20.601Z,12.87
2019-03-31T01:39:54.162Z,12.40
2019-03-31T01:42:27.928Z,12.70
2019-03-31T01:45:01.925Z,12.57
2019-03-31T01:47:35.628Z,12.33
2019-03-31T01:50:11.519Z,12.47
2019-03-31T01:52:45.672Z,12.27
2019-03-31T01:55:18.371Z,12.40
2019-03-31T01:57:52.696Z,11.73
2019-03-31T02:00:34.014Z,11.77
2019-03-31T02:03:07.316Z,11.97
2019-03-31T02:05:41.466Z,13.03
2019-03-31T02:08:15.728Z,12.80
2019-03-31T02:10:49.658Z,12.60
2019-03-31T02:13:22.548Z,12.57
2019-03-31T02:15:55.130Z,12.47
2019-03-31T02:18:29.237Z,12.17
2019-03-31T02:21:02.536Z,12.60
2019-03-31T02:23:35.445Z,11.77
2019-03-31T02:26:08.210Z,11.47
2019-03-31T02:28:42.442Z,11.53
2019-03-31T02:31:15.519Z,11.53
2019-03-31T02:33:49.342Z,11.77
2019-03-31T02:36:22.161Z,12.53
2019-03-31T02:38:55.086Z,12.30
2019-03-31T02:41:28.172Z,12.10
2019-03-31T02:44:01.259Z,12.60
2019-03-31T02:46:35.374Z,12.00
2019-03-31T02:49:08.265Z,12.80
2019-03-31T02:51:41.253Z,12.30
2019-03-31T02:54:14.715Z,14.27
2019-03-31T02:56:48.234Z,13.20
2019-03-31T02:59:22.796Z,14.37
2019-03-31T03:01:58.015Z,12.93
2019-03-31T03:04:32.798Z,12.50
2019-03-31T03:07:08.488Z,13.53
2019-03-31T03:09:42.327Z,12.23
2019-03-31T03:12:16.979Z,12.83
2019-03-31T03:14:52.992Z,12.97
2019-03-31T03:17:25.955Z,11.80
2019-03-31T03:20:00.630Z,11.80
2019-03-31T03:22:33.576Z,11.63
2019-03-31T03:25:06.727Z,11.73
2019-03-31T03:27:39.824Z,12.50
2019-03-31T03:30:12.676Z,12.47
2019-03-31T03:33:12.203Z,10.77
2019-03-31T03:35:21.028Z,11.97
2019-03-31T03:37:54.185Z,11.27
2019-03-31T03:40:26.961Z,11.87
2019-03-31T03:43:00.779Z,11.47
2019-03-31T03:45:33.615Z,11.70
2019-03-31T03:48:06.762Z,12.10
2019-03-31T03:50:39.517Z,12.87
2019-03-31T03:53:12.459Z,12.03
2019-03-31T03:55:45.966Z,12.83
2019-03-31T03:58:18.597Z,12.73
2019-03-31T04:00:52.285Z,12.90
2019-03-31T04:03:30.551Z,13.00
2019-03-31T04:06:01.980Z,13.30
2019-03-31T04:08:38.026Z,13.87
2019-03-31T04:11:28.606Z,14.17
2019-03-31T04:14:01.254Z,13.87
2019-03-31T04:16:34.316Z,12.93
2019-03-31T04:19:06.939Z,13.93
2019-03-31T04:21:39.500Z,14.40
2019-03-31T04:24:12.083Z,12.90
2019-03-31T04:26:46.493Z,12.57
2019-03-31T04:29:21.787Z,12.47
2019-03-31T04:31:55.761Z,12.93
2019-03-31T04:34:30.658Z,12.70
2019-03-31T04:37:03.863Z,12.80
2019-03-31T04:39:38.371Z,11.73
2019-03-31T04:42:13.565Z,13.00
2019-03-31T04:44:48.552Z,12.23
2019-03-31T04:47:22.054Z,12.93
2019-03-31T04:49:56.260Z,12.63
2019-03-31T04:52:30.269Z,13.03
2019-03-31T04:55:03.874Z,12.43
2019-03-31T04:57:38.596Z,12.73
2019-03-31T05:00:13.035Z,12.87
2019-03-31T05:02:45.955Z,12.43
2019-03-31T05:05:19.745Z,12.27
2019-03-31T05:07:54.441Z,11.37
2019-03-31T05:10:27.763Z,11.67
2019-03-31T05:13:02.855Z,12.10
2019-03-31T05:15:36.661Z,12.13
2019-03-31T05:18:09.688Z,11.63
2019-03-31T05:20:42.462Z,13.27
2019-03-31T05:23:16.431Z,12.37
2019-03-31T05:25:49.111Z,11.87
2019-03-31T05:28:23.008Z,12.20
2019-03-31T05:30:59.273Z,11.63
2019-03-31T05:33:33.435Z,11.83
2019-03-31T05:36:07.030Z,12.17
2019-03-31T05:38:41.251Z,12.00
2019-03-31T05:41:14.531Z,11.47
2019-03-31T05:43:48.109Z,11.53
2019-03-31T05:46:21.351Z,11.10
2019-03-31T05:48:54.855Z,11.17
2019-03-31T05:51:28.155Z,11.50
2019-03-31T05:54:02.264Z,11.47
2019-03-31T05:56:35.428Z,11.83
2019-03-31T05:59:08.472Z,11.60
2019-03-31T06:01:42.079Z,11.90
2019-03-31T06:04:17.270Z,11.57
2019-03-31T06:06:51.276Z,11.43
2019-03-31T06:09:24.431Z,11.63
2019-03-31T06:11:57.479Z,12.07
2019-03-31T06:14:30.159Z,11.53
2019-03-31T06:17:05.533Z,12.57
2019-03-31T06:19:39.651Z,11.93
2019-03-31T06:22:14.784Z,11.93
2019-03-31T06:24:47.869Z,12.53
2019-03-31T06:27:20.391Z,11.60
2019-03-31T06:29:54.590Z,12.43
2019-03-31T06:32:27.224Z,12.83
2019-03-31T06:34:59.920Z,12.83
2019-03-31T06:37:34.064Z,12.47
2019-03-31T06:40:06.882Z,12.53
2019-03-31T06:42:40.557Z,12.60
2019-03-31T06:45:13.442Z,11.93
2019-03-31T06:47:47.239Z,13.07
2019-03-31T06:50:20.890Z,13.33
2019-03-31T06:52:53.414Z,13.07
2019-03-31T06:55:28.323Z,13.33
2019-03-31T06:58:03.675Z,13.10
2019-03-31T07:00:37.508Z,12.67
2019-03-31T07:03:13.483Z,12.67
2019-03-31T07:05:47.814Z,12.37
2019-03-31T07:08:20.473Z,12.47
2019-03-31T07:10:54.455Z,12.67
2019-03-31T07:13:29.264Z,12.43
2019-03-31T07:16:02.347Z,12.50
2019-03-31T07:18:36.924Z,12.60
2019-03-31T07:21:09.680Z,12.13
2019-03-31T07:23:42.176Z,12.47
2019-03-31T07:26:14.721Z,12.30
2019-03-31T07:28:47.619Z,12.70
2019-03-31T07:31:20.290Z,13.07
2019-03-31T07:33:53.349Z,12.80
2019-03-31T07:36:26.569Z,12.07
2019-03-31T07:39:00.442Z,12.70
2019-03-31T07:41:33.398Z,12.67
2019-03-31T07:44:08.562Z,12.30
2019-03-31T07:46:42.323Z,12.50
2019-03-31T07:49:16.073Z,12.00
2019-03-31T07:51:50.082Z,11.50
2019-03-31T07:54:23.408Z,13.00
2019-03-31T07:56:56.396Z,12.20
2019-03-31T07:59:29.064Z,12.60
2019-03-31T08:02:03.247Z,12.63
2019-03-31T08:04:37.478Z,11.73
2019-03-31T08:07:10.064Z,12.60
2019-03-31T08:09:42.747Z,12.57
2019-03-31T08:12:15.387Z,12.43
2019-03-31T08:14:47.918Z,12.73
2019-03-31T08:17:21.324Z,12.97
2019-03-31T08:19:54.637Z,12.33
2019-03-31T08:22:27.300Z,12.97
2019-03-31T08:24:59.811Z,12.53
2019-03-31T08:27:32.898Z,12.80
2019-03-31T08:30:07.928Z,12.10
2019-03-31T08:32:43.143Z,12.90
2019-03-31T08:35:17.274Z,12.50
2019-03-31T08:37:51.244Z,13.40
2019-03-31T08:40:24.599Z,12.73
2019-03-31T08:42:58.410Z,12.87
2019-03-31T08:45:32.941Z,12.57
2019-03-31T08:48:06.029Z,13.90
2019-03-31T08:50:39.119Z,12.13
2019-03-31T08:53:11.705Z,13.47
2019-03-31T08:55:45.279Z,13.20
2019-03-31T08:58:17.866Z,11.97
2019-03-31T09:00:55.307Z,13.17
2019-03-31T09:03:29.136Z,12.50
2019-03-31T09:06:02.704Z,12.97
2019-03-31T09:08:36.529Z,12.40
2019-03-31T09:11:09.751Z,12.70
2019-03-31T09:13:44.008Z,12.90
2019-03-31T09:16:17.272Z,12.87
2019-03-31T09:18:50.235Z,12.33
2019-03-31T09:21:24.928Z,12.60
2019-03-31T09:23:59.113Z,12.97
2019-03-31T09:26:33.737Z,12.37
2019-03-31T09:29:07.324Z,12.60
2019-03-31T09:31:39.892Z,12.53
2019-03-31T09:34:12.763Z,12.07
2019-03-31T09:36:45.930Z,12.70
2019-03-31T09:39:19.846Z,12.37
2019-03-31T09:41:54.154Z,12.40
2019-03-31T09:44:30.376Z,11.97
2019-03-31T09:47:05.155Z,12.37
2019-03-31T09:49:40.191Z,12.33
2019-03-31T09:52:12.696Z,12.80
2019-03-31T09:54:46.230Z,13.40
2019-03-31T09:57:19.543Z,13.67
2019-03-31T09:59:53.237Z,12.73
2019-03-31T10:02:26.368Z,13.00
2019-03-31T10:04:59.606Z,13.10
2019-03-31T10:07:34.847Z,14.27
2019-03-31T10:10:09.464Z,14.17
2019-03-31T10:12:42.118Z,13.57
2019-03-31T10:15:17.034Z,13.80
2019-03-31T10:17:49.683Z,12.20
2019-03-31T10:20:22.360Z,14.60
2019-03-31T10:22:56.217Z,14.93
2019-03-31T10:25:28.827Z,14.33
2019-03-31T10:28:02.463Z,14.50
2019-03-31T10:30:39.403Z,13.43
2019-03-31T10:33:13.946Z,11.87
2019-03-31T10:35:47.129Z,12.83
2019-03-31T10:38:21.413Z,13.63
2019-03-31T10:40:53.987Z,12.07
2019-03-31T10:43:28.430Z,13.30
2019-03-31T10:46:01.736Z,11.83
2019-03-31T10:48:34.705Z,12.40
2019-03-31T10:51:08.130Z,11.53
2019-03-31T10:53:40.840Z,12.07
2019-03-31T10:56:14.694Z,11.27
2019-03-31T10:58:47.804Z,10.30
2019-03-31T11:01:21.967Z,10.73
2019-03-31T11:03:55.049Z,11.23
2019-03-31T11:06:29.659Z,9.30
2019-03-31T11:09:05.655Z,7.07
2019-03-31T11:11:39.332Z,8.27
2019-03-31T11:14:14.401Z,8.40
2019-03-31T11:16:47.492Z,7.13
2019-03-31T11:19:21.847Z,6.00
2019-03-31T11:22:03.066Z,5.80
2019-03-31T11:24:36.994Z,5.77
2019-03-31T11:27:10.484Z,6.10
2019-03-31T11:29:43.183Z,7.30
2019-03-31T11:32:15.821Z,6.50
2019-03-31T11:34:48.394Z,6.30
2019-03-31T11:37:21.101Z,6.63
2019-03-31T11:39:56.208Z,6.70
2019-03-31T11:42:30.021Z,6.97
2019-03-31T11:45:04.411Z,5.77
2019-03-31T11:47:37.889Z,6.00
2019-03-31T11:50:11.445Z,6.53
2019-03-31T11:52:45.131Z,6.90
2019-03-31T11:55:17.897Z,7.57
2019-03-31T11:57:50.889Z,6.87
2019-03-31T12:00:25.248Z,6.10
2019-03-31T12:02:59.311Z,6.00
2019-03-31T12:05:32.319Z,5.17
2019-03-31T12:08:06.883Z,5.90
2019-03-31T12:10:41.172Z,5.97
2019-03-31T12:13:13.875Z,6.30
2019-03-31T12:15:46.791Z,5.20
2019-03-31T12:18:20.473Z,5.50
2019-03-31T12:20:53.011Z,5.20
2019-03-31T12:23:25.704Z,5.67
2019-03-31T12:25:58.888Z,5.80
2019-03-31T12:28:31.833Z,6.40
2019-03-31T12:31:04.782Z,5.10
2019-03-31T12:33:37.692Z,5.57
2019-03-31T12:36:10.683Z,7.03
2019-03-31T12:38:44.215Z,5.70
2019-03-31T12:41:17.239Z,7.17
2019-03-31T12:43:49.784Z,6.57
2019-03-31T12:46:22.519Z,7.23
2019-03-31T12:48:55.383Z,7.73
2019-03-31T12:51:28.039Z,6.90
2019-03-31T12:54:01.661Z,7.33
2019-03-31T12:56:34.890Z,6.97
2019-03-31T12:59:09.565Z,7.10
2019-03-31T13:01:42.526Z,6.70
2019-03-31T13:04:15.602Z,6.20
2019-03-31T13:06:49.375Z,6.37
2019-03-31T13:09:22.489Z,6.20
2019-03-31T13:11:57.132Z,6.23
2019-03-31T13:14:29.758Z,6.60
2019-03-31T13:17:03.766Z,6.30
2019-03-31T13:19:36.679Z,5.90
2019-03-31T13:22:10.054Z,6.37
2019-03-31T13:24:43.061Z,6.57
2019-03-31T13:27:16.943Z,6.30
2019-03-31T13:29:51.387Z,6.57
2019-03-31T13:32:25.349Z,6.67
2019-03-31T13:34:59.166Z,6.20
2019-03-31T13:37:32.371Z,5.50
2019-03-31T13:40:05.188Z,5.13
2019-03-31T13:42:38.846Z,4.80
2019-03-31T13:45:13.553Z,4.40
2019-03-31T13:47:47.089Z,4.30
2019-03-31T13:50:20.600Z,4.67
2019-03-31T13:52:55.000Z,4.20
2019-03-31T13:55:29.606Z,4.20
2019-03-31T13:58:03.304Z,4.70
2019-03-31T14:00:40.942Z,5.70
2019-03-31T14:03:15.043Z,5.17
2019-03-31T14:05:51.689Z,5.77
2019-03-31T14:08:26.335Z,5.50
2019-03-31T14:11:00.915Z,6.30
2019-03-31T14:13:34.933Z,5.63
2019-03-31T14:16:10.363Z,5.83
2019-03-31T14:18:44.036Z,6.40
2019-03-31T14:21:17.998Z,8.33
2019-03-31T14:23:50.592Z,9.30
2019-03-31T14:26:24.179Z,8.87
2019-03-31T14:28:57.055Z,7.83
2019-03-31T14:31:30.657Z,7.27
2019-03-31T14:34:03.393Z,7.40
2019-03-31T14:36:37.006Z,6.73
2019-03-31T14:39:12.061Z,7.67
2019-03-31T14:41:44.916Z,8.17
2019-03-31T14:44:21.380Z,7.90
2019-03-31T14:46:55.221Z,8.10
2019-03-31T14:49:28.841Z,8.17
2019-03-31T14:52:02.027Z,7.27
2019-03-31T14:54:36.610Z,6.70
2019-03-31T14:57:09.508Z,7.07
2019-03-31T14:59:42.210Z,6.50
2019-03-31T15:02:15.688Z,6.90
2019-03-31T15:04:48.291Z,5.97
2019-03-31T15:07:21.273Z,5.43
2019-03-31T15:09:53.781Z,6.10
2019-03-31T15:12:27.949Z,5.33
2019-03-31T15:15:00.440Z,5.17
2019-03-31T15:17:34.512Z,5.07
2019-03-31T15:20:08.854Z,8.00
2019-03-31T15:22:41.623Z,7.53
2019-03-31T15:25:16.066Z,8.87
2019-03-31T15:27:50.975Z,8.77
2019-03-31T15:30:24.395Z,9.83
2019-03-31T15:32:57.629Z,11.20
2019-03-31T15:35:30.104Z,11.40
2019-03-31T15:38:03.029Z,11.10
2019-03-31T15:40:35.479Z,11.30
2019-03-31T15:43:11.529Z,11.90
2019-03-31T15:45:46.691Z,11.80
2019-03-31T15:48:25.482Z,11.73
2019-03-31T15:50:58.896Z,11.70
2019-03-31T15:53:32.910Z,11.30
2019-03-31T15:56:06.019Z,10.87
2019-03-31T15:58:41.974Z,10.60
2019-03-31T16:01:15.177Z,10.60
2019-03-31T16:03:48.258Z,10.97
2019-03-31T16:06:22.546Z,10.13
2019-03-31T16:08:54.602Z,9.80
2019-03-31T16:11:26.438Z,9.70
2019-03-31T16:13:59.916Z,9.70
2019-03-31T16:16:33.053Z,10.33
2019-03-31T16:19:06.483Z,10.90
2019-03-31T16:21:38.633Z,10.33
2019-03-31T16:24:12.296Z,9.90
2019-03-31T16:26:44.255Z,12.97
2019-03-31T16:29:17.500Z,13.87
2019-03-31T16:31:49.593Z,15.27
2019-03-31T16:34:21.888Z,18.43
2019-03-31T16:36:54.000Z,17.80
2019-03-31T16:39:37.066Z,20.23
2019-03-31T16:42:03.149Z,20.27
2019-03-31T16:44:37.007Z,19.40
2019-03-31T16:47:10.473Z,21.60
2019-03-31T16:49:44.807Z,21.50
2019-03-31T16:52:19.011Z,23.97
2019-03-31T16:54:52.553Z,22.83
2019-03-31T16:57:24.975Z,22.77
2019-03-31T16:59:57.983Z,23.20
2019-03-31T17:02:30.578Z,24.27
2019-03-31T17:05:02.950Z,26.03
2019-03-31T17:07:35.719Z,26.37
2019-03-31T17:10:07.945Z,26.23
2019-03-31T17:12:40.689Z,25.23
2019-03-31T17:15:13.199Z,26.17
2019-03-31T17:17:45.588Z,27.27
2019-03-31T17:20:19.863Z,28.07
2019-03-31T17:22:52.291Z,25.40
2019-03-31T17:25:24.232Z,27.97
2019-03-31T17:27:57.351Z,27.10
2019-03-31T17:30:30.250Z,27.20
2019-03-31T17:33:04.834Z,27.33
2019-03-31T17:35:37.257Z,28.00
2019-03-31T17:38:09.680Z,29.67
2019-03-31T17:40:44.095Z,27.53
2019-03-31T17:43:17.343Z,28.33
2019-03-31T17:45:51.641Z,26.90
2019-03-31T17:48:23.659Z,29.50
2019-03-31T17:50:55.663Z,29.20
2019-03-31T17:53:28.413Z,29.63
2019-03-31T17:56:00.234Z,30.40
2019-03-31T17:58:32.482Z,30.67
2019-03-31T18:01:05.397Z,31.50
2019-03-31T18:03:37.272Z,30.77
2019-03-31T18:06:10.106Z,30.87
2019-03-31T18:08:43.568Z,30.50
2019-03-31T18:11:15.453Z,30.27
2019-03-31T18:13:47.344Z,32.43
2019-03-31T18:16:19.653Z,31.93
2019-03-31T18:18:51.567Z,29.73
2019-03-31T18:21:27.081Z,30.83
2019-03-31T18:23:57.941Z,32.67
2019-03-31T18:26:29.934Z,30.80
2019-03-31T18:29:02.584Z,31.40
2019-03-31T18:31:34.961Z,31.03
2019-03-31T18:34:07.429Z,31.70
2019-03-31T18:36:40.143Z,30.93
2019-03-31T18:39:14.049Z,31.50
2019-03-31T18:41:45.989Z,31.90
2019-03-31T18:44:18.114Z,31.13
2019-03-31T18:46:50.946Z,29.80
2019-03-31T18:49:22.817Z,30.80
2019-03-31T18:51:54.729Z,29.13
2019-03-31T18:54:31.956Z,29.03
2019-03-31T18:57:12.903Z,28.17
2019-03-31T18:59:54.950Z,27.60
2019-03-31T19:02:43.173Z,28.33
2019-03-31T19:05:39.874Z,28.70
2019-03-31T19:08:50.586Z,27.47
2019-03-31T19:11:37.686Z,26.57
2019-03-31T19:14:20.105Z,27.43
2019-03-31T19:17:14.262Z,26.40
2019-03-31T19:19:51.013Z,26.73
2019-03-31T19:22:48.342Z,26.27
2019-03-31T19:25:40.865Z,24.63
2019-03-31T19:28:33.626Z,24.87
2019-03-31T19:31:23.903Z,25.90
2019-03-31T19:34:20.852Z,26.67
2019-03-31T19:37:04.386Z,24.60
2019-03-31T19:40:08.536Z,25.83
2019-03-31T19:43:11.369Z,26.03
2019-03-31T19:46:09.323Z,24.63
2019-03-31T19:49:12.776Z,26.30
2019-03-31T19:52:06.768Z,25.43
2019-03-31T19:54:53.225Z,25.70
2019-03-31T19:57:47.242Z,24.90
2019-03-31T20:00:39.095Z,26.83
2019-03-31T20:03:39.074Z,25.50
2019-03-31T20:06:44.887Z,24.10
2019-03-31T20:09:33.443Z,25.17
2019-03-31T20:12:24.218Z,25.27
2019-03-31T20:15:27.549Z,26.40
2019-03-31T20:18:18.247Z,26.00
2019-03-31T20:21:12.369Z,25.47
2019-03-31T20:24:06.123Z,25.17
2019-03-31T20:26:55.885Z,24.50
2019-03-31T20:30:04.938Z,24.90
2019-03-31T20:33:07.304Z,25.07
2019-03-31T20:35:55.751Z,24.43
2019-03-31T20:38:49.378Z,26.73
2019-03-31T20:41:40.485Z,24.93
2019-03-31T20:44:12.890Z,25.00
2019-03-31T20:46:45.313Z,26.27
2019-03-31T20:49:17.624Z,25.27
2019-03-31T20:51:49.618Z,25.53
2019-03-31T20:54:21.783Z,26.13
2019-03-31T20:56:54.329Z,26.23
2019-03-31T20:59:26.329Z,26.60
2019-03-31T21:01:58.617Z,26.00
2019-03-31T21:04:31.070Z,26.77
2019-03-31T21:07:03.508Z,26.77
2019-03-31T21:09:44.777Z,25.33
2019-03-31T21:12:09.095Z,26.20
2019-03-31T21:14:41.426Z,27.37
2019-03-31T21:17:13.879Z,26.80
2019-03-31T21:19:46.170Z,28.80
2019-03-31T21:22:18.107Z,28.13
2019-03-31T21:24:50.614Z,27.00
2019-03-31T21:27:22.873Z,28.03
2019-03-31T21:29:55.831Z,27.97
2019-03-31T21:32:29.375Z,30.10
2019-03-31T21:35:02.279Z,29.57
2019-03-31T21:37:34.614Z,28.53
2019-03-31T21:40:06.623Z,30.40
2019-03-31T21:42:38.912Z,28.80
2019-03-31T21:45:10.930Z,29.83
2019-03-31T21:47:42.803Z,30.47
2019-03-31T21:50:14.747Z,28.97
2019-03-31T21:52:47.132Z,28.53
2019-03-31T21:55:19.060Z,31.03
2019-03-31T21:57:51.573Z,31.47
2019-03-31T22:00:36.530Z,30.83
2019-03-31T22:03:09.910Z,29.57
2019-03-31T22:05:42.669Z,30.70
2019-03-31T22:08:15.082Z,31.53
2019-03-31T22:10:47.416Z,31.50
2019-03-31T22:13:19.701Z,31.37
2019-03-31T22:15:51.510Z,31.87
2019-03-31T22:18:23.395Z,32.50
2019-03-31T22:20:55.390Z,31.13
2019-03-31T22:23:28.109Z,32.63
2019-03-31T22:26:00.030Z,30.40
2019-03-31T22:28:32.016Z,34.03
2019-03-31T22:31:04.085Z,32.30
2019-03-31T22:33:35.978Z,32.47
2019-03-31T22:36:24.465Z,31.87
2019-03-31T22:38:56.860Z,32.77
2019-03-31T22:41:28.774Z,31.93
2019-03-31T22:44:01.167Z,31.40
2019-03-31T22:46:33.107Z,31.47
2019-03-31T22:49:05.010Z,32.80
2019-03-31T22:51:37.434Z,30.73
2019-03-31T22:54:09.847Z,31.20
2019-03-31T22:56:42.161Z,30.63
2019-03-31T22:59:14.713Z,29.80
2019-03-31T23:01:47.068Z,31.83
2019-03-31T23:04:20.579Z,31.07
2019-03-31T23:06:53.011Z,31.57
2019-03-31T23:09:24.894Z,32.33
2019-03-31T23:11:57.239Z,31.93
2019-03-31T23:14:29.209Z,29.87
2019-03-31T23:17:01.591Z,29.97
2019-03-31T23:19:33.497Z,30.80
2019-03-31T23:22:06.238Z,29.63
2019-03-31T23:24:39.219Z,29.40
2019-03-31T23:27:11.633Z,28.90
2019-03-31T23:29:43.551Z,29.13
2019-03-31T23:32:15.394Z,29.17
2019-03-31T23:34:47.659Z,29.43
2019-03-31T23:37:19.907Z,29.13
2019-03-31T23:39:52.277Z,29.80
2019-03-31T23:42:26.038Z,29.10
2019-03-31T23:44:58.447Z,28.77
2019-03-31T23:47:31.942Z,29.13
2019-03-31T23:50:04.883Z,28.13
2019-03-31T23:52:36.804Z,28.87
2019-03-31T23:55:09.284Z,28.47
2019-03-31T23:57:41.541Z,29.63
